Terminal Aerodrome Forecast
Issued by NWS

Home | Current Version | Previous Version | Text Only | Print | Product List | Glossary On
Versions: 1 2 3 4 5 6 7 8 9 10 11 12 13 14 15 16
000
FTUS43 KOAX 012300
TAFBFF
TAF
KBFF 012339Z 0200/0224 34013KT P6SM -SHRA BKN050 OVC100
     FM020200 32007KT P6SM BKN080
     FM020800 31006KT P6SM SCT150
     FM021800 30012G19KT P6SM SCT200=

USA.gov is the U.S. government's official web portal to all federal, state and local government web resources and services.